sensor_id;sensor_type;location;lat;lon;timestamp;pressure;altitude;pressure_sealevel;temperature;humidity
7157;BME280;3620;49.862;8.758;2022-08-25T00:01:17;99417.94;;;24.34;49.94
7157;BME280;3620;49.862;8.758;2022-08-25T00:03:45;99423.25;;;24.26;50.11
7157;BME280;3620;49.862;8.758;2022-08-25T00:06:13;99421.13;;;24.20;50.38
7157;BME280;3620;49.862;8.758;2022-08-25T00:08:40;99419.69;;;24.26;50.43
7157;BME280;3620;49.862;8.758;2022-08-25T00:11:09;99420.94;;;24.04;51.23
7157;BME280;3620;49.862;8.758;2022-08-25T00:13:37;99418.88;;;24.16;50.85
7157;BME280;3620;49.862;8.758;2022-08-25T00:16:05;99418.34;;;24.12;50.55
7157;BME280;3620;49.862;8.758;2022-08-25T00:18:33;99407.91;;;24.09;50.92
7157;BME280;3620;49.862;8.758;2022-08-25T00:21:01;99410.09;;;24.23;50.72
7157;BME280;3620;49.862;8.758;2022-08-25T00:23:28;99420.53;;;24.26;50.42
7157;BME280;3620;49.862;8.758;2022-08-25T00:25:55;99412.06;;;24.21;50.80
7157;BME280;3620;49.862;8.758;2022-08-25T00:28:21;99413.22;;;24.19;50.26
7157;BME280;3620;49.862;8.758;2022-08-25T00:30:48;99408.09;;;24.25;50.39
7157;BME280;3620;49.862;8.758;2022-08-25T00:33:16;99397.66;;;24.22;50.69
7157;BME280;3620;49.862;8.758;2022-08-25T00:35:44;99407.00;;;24.18;50.46
7157;BME280;3620;49.862;8.758;2022-08-25T00:38:11;99403.47;;;24.18;50.77
7157;BME280;3620;49.862;8.758;2022-08-25T00:40:39;99403.78;;;24.32;50.33
7157;BME280;3620;49.862;8.758;2022-08-25T00:43:07;99398.56;;;24.13;50.81
7157;BME280;3620;49.862;8.758;2022-08-25T00:45:34;99401.63;;;24.18;50.59
7157;BME280;3620;49.862;8.758;2022-08-25T00:48:02;99407.78;;;24.01;50.44
7157;BME280;3620;49.862;8.758;2022-08-25T00:50:31;99400.00;;;23.98;50.46
7157;BME280;3620;49.862;8.758;2022-08-25T00:53:02;99401.47;;;23.92;50.42
7157;BME280;3620;49.862;8.758;2022-08-25T00:55:33;99397.84;;;23.84;50.55
7157;BME280;3620;49.862;8.758;2022-08-25T00:58:08;99401.81;;;23.80;50.81
7157;BME280;3620;49.862;8.758;2022-08-25T01:00:40;99402.91;;;23.87;50.62
7157;BME280;3620;49.862;8.758;2022-08-25T01:03:08;99395.03;;;23.76;51.04
7157;BME280;3620;49.862;8.758;2022-08-25T01:05:35;99392.75;;;23.81;51.17
7157;BME280;3620;49.862;8.758;2022-08-25T01:08:05;99399.81;;;23.82;51.62
7157;BME280;3620;49.862;8.758;2022-08-25T01:10:34;99408.59;;;23.84;51.79
7157;BME280;3620;49.862;8.758;2022-08-25T01:13:05;99396.16;;;23.73;51.88
7157;BME280;3620;49.862;8.758;2022-08-25T01:15:33;99396.44;;;23.80;52.12
7157;BME280;3620;49.862;8.758;2022-08-25T01:18:00;99396.22;;;23.64;52.70
7157;BME280;3620;49.862;8.758;2022-08-25T01:20:29;99399.72;;;23.74;52.46
7157;BME280;3620;49.862;8.758;2022-08-25T01:22:59;99397.88;;;23.74;52.50
7157;BME280;3620;49.862;8.758;2022-08-25T01:25:33;99393.53;;;23.64;53.37
7157;BME280;3620;49.862;8.758;2022-08-25T01:28:03;99393.38;;;23.65;53.30
7157;BME280;3620;49.862;8.758;2022-08-25T01:30:30;99394.53;;;23.63;53.38
7157;BME280;3620;49.862;8.758;2022-08-25T01:32:57;99391.31;;;23.59;54.06
7157;BME280;3620;49.862;8.758;2022-08-25T01:35:23;99397.13;;;23.55;54.20
7157;BME280;3620;49.862;8.758;2022-08-25T01:37:50;99397.13;;;23.55;54.43
7157;BME280;3620;49.862;8.758;2022-08-25T01:40:18;99391.78;;;23.45;54.67
7157;BME280;3620;49.862;8.758;2022-08-25T01:42:53;99390.91;;;23.45;54.78
7157;BME280;3620;49.862;8.758;2022-08-25T01:45:25;99397.44;;;23.32;55.31
7157;BME280;3620;49.862;8.758;2022-08-25T01:47:51;99396.44;;;23.43;55.00
7157;BME280;3620;49.862;8.758;2022-08-25T01:50:18;99391.78;;;23.45;55.04
7157;BME280;3620;49.862;8.758;2022-08-25T01:52:50;99389.38;;;23.32;55.29
7157;BME280;3620;49.862;8.758;2022-08-25T01:55:19;99392.63;;;23.46;55.23
7157;BME280;3620;49.862;8.758;2022-08-25T01:57:46;99388.53;;;23.42;55.27
7157;BME280;3620;49.862;8.758;2022-08-25T02:00:14;99383.00;;;23.43;55.67
7157;BME280;3620;49.862;8.758;2022-08-25T02:02:41;99392.91;;;23.43;55.87
7157;BME280;3620;49.862;8.758;2022-08-25T02:05:08;99394.34;;;23.37;56.11
7157;BME280;3620;49.862;8.758;2022-08-25T02:07:36;99390.25;;;23.33;56.27
7157;BME280;3620;49.862;8.758;2022-08-25T02:10:04;99389.84;;;23.38;56.47
7157;BME280;3620;49.862;8.758;2022-08-25T02:12:33;99384.16;;;23.41;56.15
7157;BME280;3620;49.862;8.758;2022-08-25T02:15:02;99386.41;;;23.36;55.64
7157;BME280;3620;49.862;8.758;2022-08-25T02:17:29;99390.97;;;23.35;55.28
7157;BME280;3620;49.862;8.758;2022-08-25T02:19:56;99385.00;;;23.31;54.92
7157;BME280;3620;49.862;8.758;2022-08-25T02:22:23;99388.97;;;23.27;55.24
7157;BME280;3620;49.862;8.758;2022-08-25T02:24:50;99386.19;;;23.19;55.18
7157;BME280;3620;49.862;8.758;2022-08-25T02:27:17;99392.41;;;23.20;55.33
7157;BME280;3620;49.862;8.758;2022-08-25T02:29:45;99394.13;;;23.02;55.75
7157;BME280;3620;49.862;8.758;2022-08-25T02:32:12;99399.63;;;23.00;56.04
7157;BME280;3620;49.862;8.758;2022-08-25T02:34:39;99394.41;;;23.08;55.71
7157;BME280;3620;49.862;8.758;2022-08-25T02:37:06;99395.00;;;22.93;56.16
7157;BME280;3620;49.862;8.758;2022-08-25T02:39:33;99392.16;;;22.94;56.00
7157;BME280;3620;49.862;8.758;2022-08-25T02:42:01;99387.63;;;22.95;56.22
7157;BME280;3620;49.862;8.758;2022-08-25T02:44:28;99392.44;;;22.91;56.50
7157;BME280;3620;49.862;8.758;2022-08-25T02:46:57;99385.94;;;22.94;56.38
7157;BME280;3620;49.862;8.758;2022-08-25T02:49:24;99384.53;;;22.90;56.23
7157;BME280;3620;49.862;8.758;2022-08-25T02:51:50;99386.25;;;22.81;56.56
7157;BME280;3620;49.862;8.758;2022-08-25T02:54:18;99391.75;;;22.51;57.64
7157;BME280;3620;49.862;8.758;2022-08-25T02:56:45;99389.47;;;22.56;57.54
7157;BME280;3620;49.862;8.758;2022-08-25T02:59:11;99390.16;;;22.58;57.50
7157;BME280;3620;49.862;8.758;2022-08-25T03:01:38;99393.03;;;22.66;57.35
7157;BME280;3620;49.862;8.758;2022-08-25T03:04:06;99383.38;;;22.44;58.19
7157;BME280;3620;49.862;8.758;2022-08-25T03:06:33;99386.38;;;22.60;58.06
7157;BME280;3620;49.862;8.758;2022-08-25T03:09:00;99391.31;;;22.65;58.04
7157;BME280;3620;49.862;8.758;2022-08-25T03:11:27;99390.19;;;22.68;58.41
7157;BME280;3620;49.862;8.758;2022-08-25T03:13:54;99383.44;;;22.73;58.00
7157;BME280;3620;49.862;8.758;2022-08-25T03:16:22;99383.00;;;22.68;58.02
7157;BME280;3620;49.862;8.758;2022-08-25T03:18:49;99385.94;;;22.55;58.29
7157;BME280;3620;49.862;8.758;2022-08-25T03:21:17;99385.94;;;22.55;58.41
7157;BME280;3620;49.862;8.758;2022-08-25T03:23:44;99387.91;;;22.44;58.88
7157;BME280;3620;49.862;8.758;2022-08-25T03:26:11;99376.06;;;22.46;58.76
7157;BME280;3620;49.862;8.758;2022-08-25T03:28:55;99376.91;;;22.37;59.22
7157;BME280;3620;49.862;8.758;2022-08-25T03:31:22;99380.56;;;22.46;59.01
7157;BME280;3620;49.862;8.758;2022-08-25T03:33:50;99375.50;;;22.43;58.99
7157;BME280;3620;49.862;8.758;2022-08-25T03:36:19;99377.19;;;22.44;59.02
7157;BME280;3620;49.862;8.758;2022-08-25T03:38:45;99385.78;;;22.38;59.34
7157;BME280;3620;49.862;8.758;2022-08-25T03:41:14;99379.31;;;22.31;59.54
7157;BME280;3620;49.862;8.758;2022-08-25T03:43:41;99367.88;;;22.29;59.79
7157;BME280;3620;49.862;8.758;2022-08-25T03:46:09;99374.75;;;22.31;59.70
7157;BME280;3620;49.862;8.758;2022-08-25T03:48:41;99386.06;;;22.35;59.93
7157;BME280;3620;49.862;8.758;2022-08-25T03:51:08;99389.84;;;22.23;60.14
7157;BME280;3620;49.862;8.758;2022-08-25T03:53:36;99387.88;;;22.25;60.19
7157;BME280;3620;49.862;8.758;2022-08-25T03:56:02;99396.50;;;22.19;60.52
7157;BME280;3620;49.862;8.758;2022-08-25T03:58:29;99395.78;;;22.17;60.54
7157;BME280;3620;49.862;8.758;2022-08-25T04:00:56;99396.03;;;22.14;60.39
7157;BME280;3620;49.862;8.758;2022-08-25T04:03:24;99395.06;;;22.15;60.61
7157;BME280;3620;49.862;8.758;2022-08-25T04:05:51;99393.66;;;22.20;60.53
7157;BME280;3620;49.862;8.758;2022-08-25T04:08:18;99386.44;;;22.11;60.65
7157;BME280;3620;49.862;8.758;2022-08-25T04:10:46;99375.16;;;22.08;61.00
7157;BME280;3620;49.862;8.758;2022-08-25T04:13:13;99373.19;;;22.10;60.95
7157;BME280;3620;49.862;8.758;2022-08-25T04:15:41;99374.47;;;22.06;61.07
7157;BME280;3620;49.862;8.758;2022-08-25T04:18:07;99363.59;;;21.98;61.53
7157;BME280;3620;49.862;8.758;2022-08-25T04:20:35;99368.38;;;21.94;61.50
7157;BME280;3620;49.862;8.758;2022-08-25T04:23:02;99368.97;;;21.98;61.54
7157;BME280;3620;49.862;8.758;2022-08-25T04:25:29;99364.31;;;22.00;61.33
7157;BME280;3620;49.862;8.758;2022-08-25T04:27:57;99372.88;;;21.94;61.56
7157;BME280;3620;49.862;8.758;2022-08-25T04:30:24;99369.50;;;21.92;61.70
7157;BME280;3620;49.862;8.758;2022-08-25T04:32:51;99371.63;;;21.98;61.76
7157;BME280;3620;49.862;8.758;2022-08-25T04:35:17;99364.72;;;21.95;61.65
7157;BME280;3620;49.862;8.758;2022-08-25T04:37:45;99367.25;;;21.97;61.81
7157;BME280;3620;49.862;8.758;2022-08-25T04:40:13;99367.81;;;21.91;62.02
7157;BME280;3620;49.862;8.758;2022-08-25T04:42:39;99370.28;;;21.82;62.21
7157;BME280;3620;49.862;8.758;2022-08-25T04:45:08;99377.13;;;21.86;62.16
7157;BME280;3620;49.862;8.758;2022-08-25T04:47:36;99373.59;;;21.86;62.37
7157;BME280;3620;49.862;8.758;2022-08-25T04:50:03;99374.81;;;21.82;62.45
7157;BME280;3620;49.862;8.758;2022-08-25T04:52:31;99377.38;;;21.83;63.33
7157;BME280;3620;49.862;8.758;2022-08-25T04:54:57;99385.03;;;21.67;63.50
7157;BME280;3620;49.862;8.758;2022-08-25T04:57:24;99390.03;;;21.81;63.52
7157;BME280;3620;49.862;8.758;2022-08-25T04:59:52;99387.81;;;21.86;63.63
7157;BME280;3620;49.862;8.758;2022-08-25T05:02:21;99387.34;;;21.81;63.75
7157;BME280;3620;49.862;8.758;2022-08-25T05:04:49;99378.78;;;21.87;63.28
7157;BME280;3620;49.862;8.758;2022-08-25T05:07:16;99377.44;;;21.72;63.82
7157;BME280;3620;49.862;8.758;2022-08-25T05:09:43;99378.16;;;21.74;64.14
7157;BME280;3620;49.862;8.758;2022-08-25T05:12:09;99375.47;;;21.74;64.22
7157;BME280;3620;49.862;8.758;2022-08-25T05:14:36;99372.53;;;21.77;64.15
7157;BME280;3620;49.862;8.758;2022-08-25T05:17:03;99369.72;;;21.79;64.09
7157;BME280;3620;49.862;8.758;2022-08-25T05:19:31;99368.34;;;21.84;64.20
7157;BME280;3620;49.862;8.758;2022-08-25T05:21:58;99367.22;;;21.87;64.20
7157;BME280;3620;49.862;8.758;2022-08-25T05:24:24;99367.97;;;22.08;63.51
7157;BME280;3620;49.862;8.758;2022-08-25T05:26:52;99370.50;;;22.10;63.12
7157;BME280;3620;49.862;8.758;2022-08-25T05:29:19;99366.31;;;22.17;63.07
7157;BME280;3620;49.862;8.758;2022-08-25T05:31:46;99368.97;;;22.17;62.78
7157;BME280;3620;49.862;8.758;2022-08-25T05:34:13;99373.63;;;22.15;62.87
7157;BME280;3620;49.862;8.758;2022-08-25T05:36:42;99377.69;;;22.09;63.12
7157;BME280;3620;49.862;8.758;2022-08-25T05:39:09;99365.88;;;22.12;63.35
7157;BME280;3620;49.862;8.758;2022-08-25T05:41:35;99362.75;;;22.07;63.19
7157;BME280;3620;49.862;8.758;2022-08-25T05:44:03;99365.56;;;22.05;63.57
7157;BME280;3620;49.862;8.758;2022-08-25T05:46:29;99359.88;;;21.89;63.82
7157;BME280;3620;49.862;8.758;2022-08-25T05:48:56;99358.84;;;21.80;64.48
7157;BME280;3620;49.862;8.758;2022-08-25T05:51:23;99351.13;;;21.77;65.10
7157;BME280;3620;49.862;8.758;2022-08-25T05:53:52;99354.50;;;21.79;65.24
7157;BME280;3620;49.862;8.758;2022-08-25T05:56:18;99348.97;;;21.71;65.81
7157;BME280;3620;49.862;8.758;2022-08-25T05:58:45;99347.44;;;21.78;65.91
7157;BME280;3620;49.862;8.758;2022-08-25T06:01:21;99348.84;;;21.82;65.88
7157;BME280;3620;49.862;8.758;2022-08-25T06:04:06;99350.88;;;21.90;66.00
7157;BME280;3620;49.862;8.758;2022-08-25T06:06:33;99351.19;;;21.97;66.14
7157;BME280;3620;49.862;8.758;2022-08-25T06:09:03;99354.00;;;22.05;66.19
7157;BME280;3620;49.862;8.758;2022-08-25T06:11:33;99348.38;;;22.08;66.42
7157;BME280;3620;49.862;8.758;2022-08-25T06:14:00;99353.16;;;22.14;66.30
7157;BME280;3620;49.862;8.758;2022-08-25T06:16:27;99344.00;;;22.16;66.53
7157;BME280;3620;49.862;8.758;2022-08-25T06:18:53;99348.69;;;22.24;66.25
7157;BME280;3620;49.862;8.758;2022-08-25T06:21:20;99356.56;;;22.25;66.89
7157;BME280;3620;49.862;8.758;2022-08-25T06:23:47;99351.50;;;22.32;66.82
7157;BME280;3620;49.862;8.758;2022-08-25T06:26:16;99349.25;;;22.37;66.92
7157;BME280;3620;49.862;8.758;2022-08-25T06:28:42;99358.28;;;22.55;66.75
7157;BME280;3620;49.862;8.758;2022-08-25T06:31:09;99348.41;;;22.65;66.41
7157;BME280;3620;49.862;8.758;2022-08-25T06:33:36;99345.03;;;22.63;66.17
7157;BME280;3620;49.862;8.758;2022-08-25T06:36:03;99350.13;;;22.66;66.67
7157;BME280;3620;49.862;8.758;2022-08-25T06:38:29;99345.31;;;22.70;66.78
7157;BME280;3620;49.862;8.758;2022-08-25T06:40:56;99350.94;;;22.76;66.56
7157;BME280;3620;49.862;8.758;2022-08-25T06:43:24;99340.50;;;22.73;66.86
7157;BME280;3620;49.862;8.758;2022-08-25T06:45:52;99346.69;;;22.93;66.53
7157;BME280;3620;49.862;8.758;2022-08-25T06:48:18;99343.84;;;22.94;66.90
7157;BME280;3620;49.862;8.758;2022-08-25T06:50:45;99353.78;;;22.84;67.95
7157;BME280;3620;49.862;8.758;2022-08-25T06:53:12;99341.28;;;23.02;67.43
7157;BME280;3620;49.862;8.758;2022-08-25T06:55:39;99342.97;;;23.03;67.75
7157;BME280;3620;49.862;8.758;2022-08-25T06:58:06;99345.22;;;23.08;68.29
7157;BME280;3620;49.862;8.758;2022-08-25T07:00:35;99344.38;;;23.07;68.71
7157;BME280;3620;49.862;8.758;2022-08-25T07:03:02;99346.88;;;23.18;68.58
7157;BME280;3620;49.862;8.758;2022-08-25T07:05:30;99347.72;;;23.28;68.85
7157;BME280;3620;49.862;8.758;2022-08-25T07:07:56;99349.09;;;23.32;69.27
7157;BME280;3620;49.862;8.758;2022-08-25T07:10:23;99344.56;;;23.43;69.35
7157;BME280;3620;49.862;8.758;2022-08-25T07:12:50;99347.06;;;23.54;69.70
7157;BME280;3620;49.862;8.758;2022-08-25T07:15:17;99340.78;;;23.63;69.15
7157;BME280;3620;49.862;8.758;2022-08-25T07:17:45;99336.53;;;23.70;68.80
7157;BME280;3620;49.862;8.758;2022-08-25T07:20:12;99339.63;;;23.75;68.92
7157;BME280;3620;49.862;8.758;2022-08-25T07:22:39;99337.25;;;23.89;69.12
7157;BME280;3620;49.862;8.758;2022-08-25T07:25:07;99336.34;;;23.98;68.86
7157;BME280;3620;49.862;8.758;2022-08-25T07:27:35;99334.91;;;24.04;69.18
7157;BME280;3620;49.862;8.758;2022-08-25T07:30:03;99335.41;;;24.17;68.75
7157;BME280;3620;49.862;8.758;2022-08-25T07:32:30;99321.19;;;24.25;68.04
7157;BME280;3620;49.862;8.758;2022-08-25T07:34:58;99321.75;;;24.28;67.07
7157;BME280;3620;49.862;8.758;2022-08-25T07:37:39;99319.06;;;24.28;67.51
7157;BME280;3620;49.862;8.758;2022-08-25T07:40:08;99317.03;;;24.30;67.40
7157;BME280;3620;49.862;8.758;2022-08-25T07:42:35;99317.09;;;24.38;66.97
7157;BME280;3620;49.862;8.758;2022-08-25T07:45:03;99314.81;;;24.43;67.03
7157;BME280;3620;49.862;8.758;2022-08-25T07:47:30;99325.63;;;24.51;66.97
7157;BME280;3620;49.862;8.758;2022-08-25T07:49:58;99327.16;;;24.54;67.36
7157;BME280;3620;49.862;8.758;2022-08-25T07:52:25;99328.75;;;24.64;66.45
7157;BME280;3620;49.862;8.758;2022-08-25T07:54:52;99330.16;;;24.68;67.05
7157;BME280;3620;49.862;8.758;2022-08-25T07:57:19;99332.09;;;24.76;66.88
7157;BME280;3620;49.862;8.758;2022-08-25T07:59:49;99326.16;;;24.72;67.33
7157;BME280;3620;49.862;8.758;2022-08-25T08:02:15;99318.25;;;24.89;67.06
7157;BME280;3620;49.862;8.758;2022-08-25T08:04:42;99322.81;;;24.96;66.56
7157;BME280;3620;49.862;8.758;2022-08-25T08:07:11;99323.97;;;24.94;66.87
7157;BME280;3620;49.862;8.758;2022-08-25T08:09:38;99334.44;;;24.97;66.81
7157;BME280;3620;49.862;8.758;2022-08-25T08:12:05;99331.47;;;25.08;66.64
7157;BME280;3620;49.862;8.758;2022-08-25T08:14:32;99335.59;;;25.20;66.01
7157;BME280;3620;49.862;8.758;2022-08-25T08:16:59;99334.47;;;25.30;65.30
7157;BME280;3620;49.862;8.758;2022-08-25T08:19:30;99334.31;;;25.32;65.27
7157;BME280;3620;49.862;8.758;2022-08-25T08:21:59;99332.84;;;25.37;65.06
7157;BME280;3620;49.862;8.758;2022-08-25T08:24:29;99324.59;;;25.39;65.64
7157;BME280;3620;49.862;8.758;2022-08-25T08:26:56;99332.34;;;25.42;65.49
7157;BME280;3620;49.862;8.758;2022-08-25T08:29:23;99337.81;;;25.50;64.75
7157;BME280;3620;49.862;8.758;2022-08-25T08:31:50;99326.41;;;25.64;64.79
7157;BME280;3620;49.862;8.758;2022-08-25T08:34:17;99324.72;;;25.71;64.05
7157;BME280;3620;49.862;8.758;2022-08-25T08:36:44;99328.34;;;25.80;63.51
7157;BME280;3620;49.862;8.758;2022-08-25T08:39:10;99324.28;;;25.84;63.53
7157;BME280;3620;49.862;8.758;2022-08-25T08:42:04;99325.16;;;25.84;62.97
7157;BME280;3620;49.862;8.758;2022-08-25T08:44:58;99322.16;;;25.95;62.21
7157;BME280;3620;49.862;8.758;2022-08-25T08:47:37;99330.56;;;26.00;61.80
7157;BME280;3620;49.862;8.758;2022-08-25T08:50:15;99321.13;;;26.04;61.48
7157;BME280;3620;49.862;8.758;2022-08-25T08:52:48;99316.47;;;26.14;61.53
7157;BME280;3620;49.862;8.758;2022-08-25T08:55:24;99322.19;;;26.11;60.98
7157;BME280;3620;49.862;8.758;2022-08-25T08:57:56;99319.00;;;26.16;61.29
7157;BME280;3620;49.862;8.758;2022-08-25T09:00:23;99311.09;;;26.23;60.12
7157;BME280;3620;49.862;8.758;2022-08-25T09:02:55;99312.09;;;26.30;60.00
7157;BME280;3620;49.862;8.758;2022-08-25T09:05:26;99310.09;;;26.40;59.88
7157;BME280;3620;49.862;8.758;2022-08-25T09:07:56;99305.03;;;26.37;60.53
7157;BME280;3620;49.862;8.758;2022-08-25T09:10:25;99304.69;;;26.48;59.54
7157;BME280;3620;49.862;8.758;2022-08-25T09:13:00;99294.91;;;26.55;59.27
7157;BME280;3620;49.862;8.758;2022-08-25T09:15:35;99301.84;;;26.57;58.78
7157;BME280;3620;49.862;8.758;2022-08-25T09:18:30;99306.03;;;26.68;58.28
7157;BME280;3620;49.862;8.758;2022-08-25T09:21:07;99302.69;;;26.74;58.31
7157;BME280;3620;49.862;8.758;2022-08-25T09:23:51;99302.69;;;26.74;57.27
7157;BME280;3620;49.862;8.758;2022-08-25T09:26:28;99300.00;;;26.82;56.67
7157;BME280;3620;49.862;8.758;2022-08-25T09:29:03;99299.66;;;26.93;56.64
7157;BME280;3620;49.862;8.758;2022-08-25T09:31:35;99300.66;;;26.92;55.82
7157;BME280;3620;49.862;8.758;2022-08-25T09:34:05;99299.94;;;26.98;55.31
7157;BME280;3620;49.862;8.758;2022-08-25T09:36:33;99292.50;;;27.00;55.18
7157;BME280;3620;49.862;8.758;2022-08-25T09:39:00;99287.13;;;27.00;55.40
7157;BME280;3620;49.862;8.758;2022-08-25T09:41:49;99281.69;;;27.16;55.58
7157;BME280;3620;49.862;8.758;2022-08-25T09:44:20;99277.09;;;27.25;54.86
7157;BME280;3620;49.862;8.758;2022-08-25T09:46:57;99269.13;;;27.31;54.76
7157;BME280;3620;49.862;8.758;2022-08-25T09:49:31;99268.09;;;27.40;54.59
7157;BME280;3620;49.862;8.758;2022-08-25T09:52:31;99263.22;;;27.44;54.46
7157;BME280;3620;49.862;8.758;2022-08-25T09:55:00;99262.03;;;27.46;54.56
7157;BME280;3620;49.862;8.758;2022-08-25T09:57:44;99254.84;;;27.62;54.94
7157;BME280;3620;49.862;8.758;2022-08-25T10:00:18;99250.56;;;27.67;54.22
7157;BME280;3620;49.862;8.758;2022-08-25T10:03:03;99242.59;;;27.74;54.32
7157;BME280;3620;49.862;8.758;2022-08-25T10:05:31;99256.56;;;27.85;53.79
7157;BME280;3620;49.862;8.758;2022-08-25T10:08:03;99242.72;;;27.80;54.30
7157;BME280;3620;49.862;8.758;2022-08-25T10:10:42;99250.00;;;27.80;53.77
7157;BME280;3620;49.862;8.758;2022-08-25T10:13:13;99244.19;;;27.91;52.25
7157;BME280;3620;49.862;8.758;2022-08-25T10:15:41;99241.50;;;27.91;51.92
7157;BME280;3620;49.862;8.758;2022-08-25T10:18:19;99227.59;;;27.94;52.19
7157;BME280;3620;49.862;8.758;2022-08-25T10:21:03;99229.09;;;28.04;51.72
7157;BME280;3620;49.862;8.758;2022-08-25T10:23:32;99224.03;;;28.24;51.99
7157;BME280;3620;49.862;8.758;2022-08-25T10:26:03;99223.72;;;28.19;49.68
7157;BME280;3620;49.862;8.758;2022-08-25T10:28:33;99227.44;;;28.18;48.31
7157;BME280;3620;49.862;8.758;2022-08-25T10:31:08;99215.53;;;28.27;49.21
7157;BME280;3620;49.862;8.758;2022-08-25T10:33:43;99212.03;;;28.41;48.71
7157;BME280;3620;49.862;8.758;2022-08-25T10:36:20;99205.16;;;28.53;48.61
7157;BME280;3620;49.862;8.758;2022-08-25T10:38:51;99196.31;;;28.59;49.36
7157;BME280;3620;49.862;8.758;2022-08-25T10:41:40;99205.22;;;28.45;48.36
7157;BME280;3620;49.862;8.758;2022-08-25T10:44:17;99199.34;;;28.56;48.33
7157;BME280;3620;49.862;8.758;2022-08-25T10:50:28;99184.72;;;28.65;47.75
7157;BME280;3620;49.862;8.758;2022-08-25T10:53:14;99181.75;;;28.89;47.22
7157;BME280;3620;49.862;8.758;2022-08-25T10:55:50;99186.81;;;28.92;47.38
7157;BME280;3620;49.862;8.758;2022-08-25T10:58:28;99183.97;;;29.00;47.04
7157;BME280;3620;49.862;8.758;2022-08-25T11:01:06;99186.03;;;28.98;46.63
7157;BME280;3620;49.862;8.758;2022-08-25T11:03:45;99176.13;;;29.06;46.15
7157;BME280;3620;49.862;8.758;2022-08-25T11:06:17;99185.53;;;29.18;45.73
7157;BME280;3620;49.862;8.758;2022-08-25T11:08:49;99183.63;;;29.18;45.32
7157;BME280;3620;49.862;8.758;2022-08-25T11:11:25;99179.63;;;29.29;44.96
7157;BME280;3620;49.862;8.758;2022-08-25T11:13:58;99176.34;;;29.33;44.11
7157;BME280;3620;49.862;8.758;2022-08-25T11:16:34;99167.88;;;29.43;43.22
7157;BME280;3620;49.862;8.758;2022-08-25T11:19:11;99167.78;;;29.51;44.29
7157;BME280;3620;49.862;8.758;2022-08-25T11:21:47;99162.53;;;29.49;43.96
7157;BME280;3620;49.862;8.758;2022-08-25T11:24:31;99160.00;;;29.48;44.12
7157;BME280;3620;49.862;8.758;2022-08-25T11:27:03;99152.50;;;29.64;43.02
7157;BME280;3620;49.862;8.758;2022-08-25T11:29:34;99148.22;;;29.55;43.93
7157;BME280;3620;49.862;8.758;2022-08-25T11:32:03;99158.94;;;29.63;44.32
7157;BME280;3620;49.862;8.758;2022-08-25T11:34:34;99161.84;;;29.62;44.00
7157;BME280;3620;49.862;8.758;2022-08-25T11:37:06;99151.88;;;29.48;44.93
7157;BME280;3620;49.862;8.758;2022-08-25T11:39:51;99144.66;;;29.55;44.90
7157;BME280;3620;49.862;8.758;2022-08-25T11:42:32;99142.72;;;29.70;44.86
7157;BME280;3620;49.862;8.758;2022-08-25T11:45:14;99144.16;;;29.87;44.25
7157;BME280;3620;49.862;8.758;2022-08-25T11:48:05;99142.25;;;30.02;43.90
7157;BME280;3620;49.862;8.758;2022-08-25T11:53:36;99147.88;;;30.28;43.02
7157;BME280;3620;49.862;8.758;2022-08-25T11:56:06;99145.34;;;30.27;43.35
7157;BME280;3620;49.862;8.758;2022-08-25T11:58:44;99140.00;;;30.33;43.10
7157;BME280;3620;49.862;8.758;2022-08-25T12:04:13;99145.94;;;30.43;41.44
7157;BME280;3620;49.862;8.758;2022-08-25T12:07:21;99151.69;;;30.34;42.15
7157;BME280;3620;49.862;8.758;2022-08-25T12:10:18;99153.78;;;30.60;41.78
7157;BME280;3620;49.862;8.758;2022-08-25T12:13:00;99143.63;;;30.75;41.33
7157;BME280;3620;49.862;8.758;2022-08-25T12:15:32;99148.72;;;30.84;41.66
7157;BME280;3620;49.862;8.758;2022-08-25T12:18:10;99148.34;;;30.94;41.15
7157;BME280;3620;49.862;8.758;2022-08-25T12:21:09;99138.81;;;31.04;41.02
7157;BME280;3620;49.862;8.758;2022-08-25T12:23:38;99130.03;;;31.09;40.47
7157;BME280;3620;49.862;8.758;2022-08-25T12:26:13;99129.63;;;31.12;40.95
7157;BME280;3620;49.862;8.758;2022-08-25T12:28:53;99134.66;;;31.15;39.81
7157;BME280;3620;49.862;8.758;2022-08-25T12:31:45;99128.38;;;31.14;40.18
7157;BME280;3620;49.862;8.758;2022-08-25T12:34:51;99126.72;;;31.20;40.22
7157;BME280;3620;49.862;8.758;2022-08-25T12:37:21;99111.88;;;31.23;38.54
7157;BME280;3620;49.862;8.758;2022-08-25T12:39:56;99124.00;;;31.20;40.07
7157;BME280;3620;49.862;8.758;2022-08-25T12:42:29;99126.31;;;31.23;40.47
7157;BME280;3620;49.862;8.758;2022-08-25T12:45:13;99109.84;;;31.31;40.67
7157;BME280;3620;49.862;8.758;2022-08-25T12:51:02;99110.31;;;31.48;39.93
7157;BME280;3620;49.862;8.758;2022-08-25T12:53:34;99103.00;;;31.48;39.77
7157;BME280;3620;49.862;8.758;2022-08-25T12:56:06;99115.16;;;31.52;39.09
7157;BME280;3620;49.862;8.758;2022-08-25T12:58:47;99113.88;;;31.48;38.85
7157;BME280;3620;49.862;8.758;2022-08-25T13:01:22;99111.28;;;31.27;38.93
7157;BME280;3620;49.862;8.758;2022-08-25T13:04:09;99103.28;;;31.12;39.16
7157;BME280;3620;49.862;8.758;2022-08-25T13:07:06;99108.69;;;31.06;40.52
7157;BME280;3620;49.862;8.758;2022-08-25T13:10:02;99107.88;;;31.12;40.20
7157;BME280;3620;49.862;8.758;2022-08-25T13:12:36;99094.31;;;31.25;39.50
7157;BME280;3620;49.862;8.758;2022-08-25T13:15:10;99101.25;;;31.34;39.63
7157;BME280;3620;49.862;8.758;2022-08-25T13:17:38;99094.16;;;31.33;39.64
7157;BME280;3620;49.862;8.758;2022-08-25T13:20:17;99089.75;;;31.32;39.12
7157;BME280;3620;49.862;8.758;2022-08-25T13:22:46;99081.59;;;31.32;39.85
7157;BME280;3620;49.862;8.758;2022-08-25T13:25:17;99082.22;;;31.34;40.10
7157;BME280;3620;49.862;8.758;2022-08-25T13:27:48;99077.84;;;31.33;39.91
7157;BME280;3620;49.862;8.758;2022-08-25T13:30:23;99080.34;;;31.35;39.39
7157;BME280;3620;49.862;8.758;2022-08-25T13:32:50;99070.09;;;30.83;40.68
7157;BME280;3620;49.862;8.758;2022-08-25T13:35:20;99073.53;;;30.98;41.06
7157;BME280;3620;49.862;8.758;2022-08-25T13:37:47;99068.16;;;31.11;40.30
7157;BME280;3620;49.862;8.758;2022-08-25T13:40:15;99058.97;;;31.25;39.87
7157;BME280;3620;49.862;8.758;2022-08-25T13:42:49;99061.72;;;31.38;38.32
7157;BME280;3620;49.862;8.758;2022-08-25T13:45:21;99073.66;;;31.37;38.79
7157;BME280;3620;49.862;8.758;2022-08-25T13:47:48;99051.94;;;31.50;39.05
7157;BME280;3620;49.862;8.758;2022-08-25T13:50:19;99058.03;;;31.65;37.85
7157;BME280;3620;49.862;8.758;2022-08-25T13:52:49;99059.50;;;31.81;37.95
7157;BME280;3620;49.862;8.758;2022-08-25T13:55:21;99060.75;;;31.92;38.05